Time;durP1;ratioP1;P1;durP2;ratioP2;P2;SDS_P1;SDS_P2;PMS_P1;PMS_P2;Temp;Humidity;BMP_temperature;BMP_pressure;BME280_temperature;BME280_humidity;BME280_pressure;Samples;Min_cycle;Max_cycle;Signal;HPM_P1;HPM_P2
2021/10/13 00:01:47;;;;;;;24.23;17.67;;;;;;;-143.90;100.00;58478.06;5093101;28;20449;-75
2021/10/13 00:04:12;;;;;;;22.90;17.00;;;;;;;-143.90;100.00;58478.06;5097164;28;20425;-77
2021/10/13 00:06:38;;;;;;;21.03;12.27;;;;;;;-143.90;100.00;58478.06;5093026;28;20541;-73
2021/10/13 00:09:03;;;;;;;23.70;16.37;;;;;;;-143.90;100.00;58478.06;5091860;28;20170;-74
2021/10/13 00:11:29;;;;;;;21.20;15.13;;;;;;;-143.90;100.00;58478.06;5094733;28;20217;-77
2021/10/13 00:13:54;;;;;;;25.47;17.13;;;;;;;-143.90;100.00;58478.06;5093226;28;20190;-74
2021/10/13 00:16:20;;;;;;;20.87;15.73;;;;;;;-143.90;100.00;58478.06;5091432;28;20618;-72
2021/10/13 00:18:45;;;;;;;23.03;16.17;;;;;;;-143.90;100.00;58478.06;5091488;28;20221;-70
2021/10/13 00:21:11;;;;;;;20.83;15.00;;;;;;;-143.90;100.00;58478.06;5091660;28;20271;-74
2021/10/13 00:23:36;;;;;;;23.47;15.70;;;;;;;-143.90;100.00;58478.06;5089782;28;20197;-72
2021/10/13 00:26:02;;;;;;;23.40;18.03;;;;;;;-143.90;100.00;58478.06;5091641;28;20174;-74
2021/10/13 00:28:27;;;;;;;24.30;18.13;;;;;;;-143.90;100.00;58478.06;5091344;28;20216;-70
2021/10/13 00:30:53;;;;;;;24.50;17.07;;;;;;;-143.90;100.00;58478.06;5091337;28;20211;-71
2021/10/13 00:33:18;;;;;;;22.00;16.93;;;;;;;-143.90;100.00;58478.06;5090840;28;20195;-71
2021/10/13 00:35:44;;;;;;;28.43;22.00;;;;;;;-143.90;100.00;58478.06;5091265;28;20560;-72
2021/10/13 00:38:09;;;;;;;30.23;19.90;;;;;;;-143.90;100.00;58478.06;5090822;28;20227;-70
2021/10/13 00:40:35;;;;;;;28.37;20.47;;;;;;;-143.90;100.00;58478.06;5091467;28;20167;-77
2021/10/13 00:43:01;;;;;;;28.07;19.70;;;;;;;-143.90;100.00;58478.06;5090858;28;20779;-75
2021/10/13 00:45:26;;;;;;;29.00;20.00;;;;;;;-143.90;100.00;58478.06;5091802;28;20183;-75
2021/10/13 00:47:52;;;;;;;56.50;17.47;;;;;;;-143.90;100.00;58478.06;5091648;28;20190;-79
2021/10/13 00:50:17;;;;;;;27.40;21.07;;;;;;;-143.90;100.00;58478.06;5090487;28;20168;-71
2021/10/13 00:52:44;;;;;;;32.60;22.90;;;;;;;-143.90;100.00;58478.06;5091508;28;20259;-73
2021/10/13 00:55:17;;;;;;;26.70;18.03;;;;;;;-143.90;100.00;58478.06;5091585;28;20210;-73
2021/10/13 00:57:44;;;;;;;27.67;18.47;;;;;;;-143.90;100.00;58478.06;5091727;28;20479;-74
2021/10/13 01:00:10;;;;;;;30.63;22.70;;;;;;;-143.90;100.00;58478.06;5092026;28;20410;-74
2021/10/13 01:02:41;;;;;;;34.83;21.70;;;;;;;-143.90;100.00;58478.06;5090073;28;20530;-72
2021/10/13 01:05:10;;;;;;;29.13;18.27;;;;;;;-143.90;100.00;58478.06;5090270;28;20528;-72
2021/10/13 01:08:14;;;;;;;30.57;21.70;;;;;;;-143.90;100.00;58478.06;5090850;28;20417;-75
2021/10/13 01:11:03;;;;;;;31.43;20.53;;;;;;;-143.90;100.00;58478.06;5089875;28;20413;-73
2021/10/13 01:14:20;;;;;;;29.80;21.40;;;;;;;-143.90;100.00;58478.06;5073926;28;20444;-76
2021/10/13 01:17:12;;;;;;;34.50;24.23;;;;;;;-143.90;100.00;58478.06;5058632;28;20809;-77
2021/10/13 01:19:38;;;;;;;30.40;21.13;;;;;;;-143.90;100.00;58478.06;5106116;28;20584;-79
2021/10/13 01:22:15;;;;;;;24.60;17.93;;;;;;;-143.90;100.00;58478.06;5090538;28;21009;-76
2021/10/13 01:25:18;;;;;;;32.53;23.70;;;;;;;-143.90;100.00;58478.06;5091528;28;20537;-73
2021/10/13 01:27:54;;;;;;;27.30;20.80;;;;;;;-143.90;100.00;58478.06;5071065;28;20481;-72
2021/10/13 01:30:22;;;;;;;31.80;21.10;;;;;;;-143.90;100.00;58478.06;5089489;28;20433;-71
2021/10/13 01:32:56;;;;;;;28.23;19.93;;;;;;;-143.90;100.00;58478.06;5089970;28;20512;-70
2021/10/13 01:35:24;;;;;;;27.17;20.93;;;;;;;-143.90;100.00;58478.06;5089526;28;20808;-75
2021/10/13 01:37:53;;;;;;;27.63;19.80;;;;;;;-143.90;100.00;58478.06;5090375;28;20916;-73
2021/10/13 01:40:23;;;;;;;28.30;19.70;;;;;;;-143.90;100.00;58478.06;5089774;28;20788;-71
2021/10/13 01:42:52;;;;;;;23.00;14.90;;;;;;;-143.90;100.00;58478.06;5089900;28;20425;-75
2021/10/13 01:45:19;;;;;;;27.80;20.47;;;;;;;-143.90;100.00;58478.06;5090327;28;20436;-74
2021/10/13 01:47:47;;;;;;;26.10;18.90;;;;;;;-143.90;100.00;58478.06;5090190;28;20424;-73
2021/10/13 01:50:14;;;;;;;32.10;19.93;;;;;;;-143.90;100.00;58478.06;5089942;28;20410;-74
2021/10/13 01:52:41;;;;;;;23.30;15.10;;;;;;;-143.90;100.00;58478.06;5089286;28;20508;-73
2021/10/13 01:55:08;;;;;;;24.87;17.57;;;;;;;-143.90;100.00;58478.06;5089870;28;20552;-72
2021/10/13 01:57:35;;;;;;;18.73;12.50;;;;;;;-143.90;100.00;58478.06;5090293;28;20417;-73
2021/10/13 02:00:07;;;;;;;23.00;16.83;;;;;;;-143.90;100.00;58478.06;5089570;28;20410;-74
2021/10/13 02:02:34;;;;;;;21.83;16.00;;;;;;;-143.90;100.00;58478.06;5090079;28;20533;-73
2021/10/13 02:05:01;;;;;;;24.57;17.87;;;;;;;-143.90;100.00;58478.06;5090263;28;20824;-75
2021/10/13 02:07:29;;;;;;;26.37;17.50;;;;;;;-143.90;100.00;58478.06;5090169;28;20421;-72
2021/10/13 02:10:02;;;;;;;26.50;16.90;;;;;;;-143.90;100.00;58478.06;5090351;28;20880;-71
2021/10/13 02:12:31;;;;;;;23.63;15.60;;;;;;;-143.90;100.00;58478.06;5089770;28;20422;-71
2021/10/13 02:14:59;;;;;;;23.00;16.40;;;;;;;-143.90;100.00;58478.06;5096515;28;20428;-74
2021/10/13 02:17:25;;;;;;;19.30;12.27;;;;;;;-143.90;100.00;58478.06;5102223;28;20439;-76
2021/10/13 02:19:53;;;;;;;18.70;12.53;;;;;;;-143.90;100.00;58478.06;5090493;28;20800;-80
2021/10/13 02:22:20;;;;;;;25.00;17.73;;;;;;;-143.90;100.00;58478.06;5101109;28;20191;-74
2021/10/13 02:24:51;;;;;;;26.10;17.70;;;;;;;-143.90;100.00;58478.06;5089460;28;20418;-74
2021/10/13 02:27:27;;;;;;;22.60;15.37;;;;;;;-143.90;100.00;58478.06;5096998;28;20413;-72
2021/10/13 02:29:53;;;;;;;25.73;18.70;;;;;;;-143.90;100.00;58478.06;5099904;28;20432;-76
2021/10/13 02:32:18;;;;;;;24.70;17.90;;;;;;;-143.90;100.00;58478.06;5104878;28;20434;-73
2021/10/13 02:34:44;;;;;;;25.87;18.00;;;;;;;-143.90;100.00;58478.06;5098477;28;20170;-73
2021/10/13 02:37:10;;;;;;;25.77;16.90;;;;;;;-143.90;100.00;58478.06;5089923;28;20170;-72
2021/10/13 02:39:36;;;;;;;29.80;20.87;;;;;;;-143.90;100.00;58478.06;5089318;28;21025;-73
2021/10/13 02:42:02;;;;;;;27.13;20.07;;;;;;;-143.90;100.00;58478.06;5089553;28;20198;-72
2021/10/13 02:44:28;;;;;;;24.00;15.40;;;;;;;-143.90;100.00;58478.06;5089592;28;20214;-79
2021/10/13 02:47:08;;;;;;;26.20;16.43;;;;;;;-143.90;100.00;58478.06;5089236;28;20500;-75
2021/10/13 02:49:54;;;;;;;23.80;15.50;;;;;;;-143.90;100.00;58478.06;5071613;28;20195;-81
2021/10/13 02:52:25;;;;;;;27.40;19.23;;;;;;;-143.90;100.00;58478.06;5084224;28;20905;-81
2021/10/13 02:54:50;;;;;;;26.20;16.50;;;;;;;-143.90;100.00;58478.06;5089993;28;20402;-74
2021/10/13 02:57:17;;;;;;;27.03;18.03;;;;;;;-143.90;100.00;58478.06;5089587;28;20880;-73
2021/10/13 02:59:47;;;;;;;28.87;19.10;;;;;;;-143.90;100.00;58478.06;5089905;28;20195;-73
2021/10/13 03:02:19;;;;;;;26.10;18.73;;;;;;;-143.90;100.00;58478.06;5088528;28;20502;-74
2021/10/13 03:04:49;;;;;;;29.33;19.87;;;;;;;-143.90;100.00;58478.06;5089730;28;20463;-72
2021/10/13 03:07:19;;;;;;;28.90;18.53;;;;;;;-143.90;100.00;58478.06;5093515;28;20969;-72
2021/10/13 03:09:59;;;;;;;25.90;17.93;;;;;;;-143.90;100.00;58478.06;5092569;28;20429;-73
2021/10/13 03:12:40;;;;;;;27.87;15.97;;;;;;;-143.90;100.00;58478.06;5092750;28;20405;-72
2021/10/13 03:15:08;;;;;;;28.37;19.50;;;;;;;-143.90;100.00;58478.06;5092752;28;20412;-74
2021/10/13 03:17:35;;;;;;;26.23;17.37;;;;;;;-143.90;100.00;58478.06;5093651;28;20394;-73
2021/10/13 03:20:01;;;;;;;27.67;18.40;;;;;;;-143.90;100.00;58478.06;5092085;28;20462;-78
2021/10/13 03:22:27;;;;;;;27.60;18.93;;;;;;;-143.90;100.00;58478.06;5093114;28;20457;-73
2021/10/13 03:24:53;;;;;;;20.30;13.17;;;;;;;-143.90;100.00;58478.06;5092416;28;20434;-73
2021/10/13 03:27:22;;;;;;;30.20;20.33;;;;;;;-143.90;100.00;58478.06;5093317;28;20489;-71
2021/10/13 03:29:48;;;;;;;28.63;18.97;;;;;;;-143.90;100.00;58478.06;5094036;28;20222;-72
2021/10/13 03:32:16;;;;;;;30.53;19.90;;;;;;;-143.90;100.00;58478.06;5097987;28;20449;-74
2021/10/13 03:34:42;;;;;;;29.43;19.90;;;;;;;-143.90;100.00;58478.06;5092813;28;20611;-75
2021/10/13 03:37:07;;;;;;;30.23;20.80;;;;;;;-143.90;100.00;58478.06;5098798;28;20438;-74
2021/10/13 03:39:33;;;;;;;32.50;21.30;;;;;;;-143.90;100.00;58478.06;5092307;28;20237;-74
2021/10/13 03:42:01;;;;;;;33.97;21.70;;;;;;;-143.90;100.00;58478.06;5092951;28;20696;-73
2021/10/13 03:44:27;;;;;;;32.00;22.00;;;;;;;-143.90;100.00;58478.06;5092917;28;20171;-73
2021/10/13 03:46:52;;;;;;;34.43;21.60;;;;;;;-143.90;100.00;58478.06;5092313;28;20421;-73
2021/10/13 03:49:17;;;;;;;32.70;19.40;;;;;;;-143.90;100.00;58478.06;5094065;28;20178;-73
2021/10/13 03:51:43;;;;;;;29.63;19.10;;;;;;;-143.90;100.00;58478.06;5092113;28;20164;-73
2021/10/13 03:54:09;;;;;;;40.80;22.67;;;;;;;-143.90;100.00;58478.06;5099744;28;20152;-72
2021/10/13 03:56:34;;;;;;;43.20;24.90;;;;;;;-143.90;100.00;58478.06;5092777;28;20176;-73
2021/10/13 03:59:00;;;;;;;32.77;20.63;;;;;;;-143.90;100.00;58478.06;5092770;28;20164;-73
2021/10/13 04:01:26;;;;;;;32.10;16.50;;;;;;;-143.90;100.00;58478.06;5085333;28;20236;-72
2021/10/13 04:03:52;;;;;;;34.57;23.87;;;;;;;-143.90;100.00;58478.06;5099491;28;20178;-74
2021/10/13 04:06:17;;;;;;;33.50;21.50;;;;;;;-143.90;100.00;58478.06;5098627;28;20413;-72
2021/10/13 04:08:43;;;;;;;37.53;24.17;;;;;;;-143.90;100.00;58478.06;5093876;28;20175;-73
2021/10/13 04:11:08;;;;;;;35.67;22.53;;;;;;;-143.90;100.00;58478.06;5097580;28;20604;-72
2021/10/13 04:13:34;;;;;;;38.37;26.00;;;;;;;-143.90;100.00;58478.06;5095176;28;20159;-74
2021/10/13 04:15:59;;;;;;;40.07;23.20;;;;;;;-143.90;100.00;58478.06;5099708;28;20238;-74
2021/10/13 04:18:25;;;;;;;35.80;23.77;;;;;;;-143.90;100.00;58478.06;5098210;28;20254;-75
2021/10/13 04:20:50;;;;;;;41.57;25.77;;;;;;;-143.90;100.00;58478.06;5091008;28;20186;-74
2021/10/13 04:23:16;;;;;;;38.77;24.30;;;;;;;-143.90;100.00;58478.06;5091895;28;20168;-72
2021/10/13 04:25:41;;;;;;;43.07;25.70;;;;;;;-143.90;100.00;58478.06;5088671;28;20598;-74
2021/10/13 04:28:07;;;;;;;34.40;21.43;;;;;;;-143.90;100.00;58478.06;5095642;28;20160;-75
2021/10/13 04:30:32;;;;;;;41.27;26.60;;;;;;;-143.90;100.00;58478.06;5097207;28;20169;-73
2021/10/13 04:32:58;;;;;;;39.77;25.10;;;;;;;-143.90;100.00;58478.06;5091126;28;20167;-73
2021/10/13 04:35:23;;;;;;;32.10;22.03;;;;;;;-143.90;100.00;58478.06;5092525;28;20217;-73
2021/10/13 04:37:49;;;;;;;38.07;25.67;;;;;;;-143.90;100.00;58478.06;5092012;28;20531;-72
2021/10/13 04:40:15;;;;;;;34.60;21.60;;;;;;;-143.90;100.00;58478.06;5095155;28;20235;-74
2021/10/13 04:42:40;;;;;;;37.40;24.73;;;;;;;-143.90;100.00;58478.06;5091478;28;20548;-73
2021/10/13 04:45:06;;;;;;;38.43;25.40;;;;;;;-143.90;100.00;58478.06;5095113;28;20156;-74
2021/10/13 04:47:32;;;;;;;40.70;24.50;;;;;;;-143.90;100.00;58478.06;5092374;28;20167;-75
2021/10/13 04:49:57;;;;;;;33.73;19.37;;;;;;;-143.90;100.00;58478.06;5091326;28;20535;-70
2021/10/13 04:52:23;;;;;;;38.00;22.97;;;;;;;-143.90;100.00;58478.06;5090881;28;20201;-74
2021/10/13 04:54:48;;;;;;;35.20;22.13;;;;;;;-143.90;100.00;58478.06;5092238;28;20179;-71
2021/10/13 04:57:14;;;;;;;35.77;21.10;;;;;;;-143.90;100.00;58478.06;5091602;28;20176;-72
2021/10/13 04:59:39;;;;;;;34.50;21.37;;;;;;;-143.90;100.00;58478.06;5091098;28;20251;-73
2021/10/13 05:02:05;;;;;;;37.10;20.53;;;;;;;-143.90;100.00;58478.06;5091302;28;20203;-72
2021/10/13 05:04:30;;;;;;;33.27;22.37;;;;;;;-143.90;100.00;58478.06;5091885;28;20198;-75
2021/10/13 05:06:56;;;;;;;36.37;22.20;;;;;;;-143.90;100.00;58478.06;5091403;28;20186;-75
2021/10/13 05:09:22;;;;;;;36.10;22.60;;;;;;;-143.90;100.00;58478.06;5091388;28;20217;-74
2021/10/13 05:11:47;;;;;;;29.40;18.90;;;;;;;-143.90;100.00;58478.06;5091496;28;20537;-79
2021/10/13 05:14:13;;;;;;;32.00;18.00;;;;;;;-143.90;100.00;58478.06;5090377;28;20520;-75
2021/10/13 05:16:40;;;;;;;57.50;37.10;;;;;;;-143.90;100.00;58478.06;5090877;28;20698;-72
2021/10/13 05:19:06;;;;;;;37.60;22.37;;;;;;;-143.90;100.00;58478.06;5092130;28;20212;-74
2021/10/13 05:21:32;;;;;;;32.80;22.10;;;;;;;-143.90;100.00;58478.06;5091798;28;20817;-75
2021/10/13 05:23:57;;;;;;;27.43;13.40;;;;;;;-143.90;100.00;58478.06;5090753;28;20418;-73
2021/10/13 05:26:23;;;;;;;36.97;21.80;;;;;;;-143.90;100.00;58478.06;5090275;28;20218;-71
2021/10/13 05:28:48;;;;;;;28.13;18.20;;;;;;;-143.90;100.00;58478.06;5090388;28;20196;-73
2021/10/13 05:31:14;;;;;;;33.23;21.70;;;;;;;-143.90;100.00;58478.06;5090360;28;20602;-71
2021/10/13 05:33:39;;;;;;;31.47;20.27;;;;;;;-143.90;100.00;58478.06;5090468;28;20601;-73
2021/10/13 05:36:05;;;;;;;29.03;17.40;;;;;;;-143.90;100.00;58478.06;5091785;28;20594;-73
2021/10/13 05:38:30;;;;;;;30.27;18.67;;;;;;;-143.90;100.00;58478.06;5090426;28;20294;-69
2021/10/13 05:40:56;;;;;;;29.40;19.37;;;;;;;-143.90;100.00;58478.06;5090545;28;20271;-72
2021/10/13 05:43:21;;;;;;;31.00;20.17;;;;;;;-143.90;100.00;58478.06;5089134;28;20166;-72
2021/10/13 05:45:47;;;;;;;27.80;19.07;;;;;;;-143.90;100.00;58478.06;5090728;28;20159;-72
2021/10/13 05:48:15;;;;;;;29.17;18.17;;;;;;;-143.90;100.00;58478.06;5089139;28;20634;-71
2021/10/13 05:50:40;;;;;;;28.70;20.03;;;;;;;-143.90;100.00;58478.06;5089503;28;20422;-70
2021/10/13 05:53:06;;;;;;;29.70;19.07;;;;;;;-143.90;100.00;58478.06;5088913;28;20406;-73
2021/10/13 05:55:32;;;;;;;34.60;21.73;;;;;;;-143.90;100.00;58478.06;5089279;28;20171;-74
2021/10/13 05:58:01;;;;;;;27.63;20.10;;;;;;;-143.90;100.00;58478.06;5090560;28;20294;-80
2021/10/13 06:00:28;;;;;;;31.63;20.10;;;;;;;-143.90;100.00;58478.06;5101446;28;20167;-74
2021/10/13 06:02:53;;;;;;;32.30;19.13;;;;;;;-143.90;100.00;58478.06;5097532;28;20468;-74
2021/10/13 06:05:19;;;;;;;30.90;19.60;;;;;;;-143.90;100.00;58478.06;5101679;28;20418;-75
2021/10/13 06:07:54;;;;;;;34.30;20.30;;;;;;;-143.90;100.00;58478.06;5094458;28;20510;-75
2021/10/13 06:10:22;;;;;;;32.60;20.63;;;;;;;-143.90;100.00;58478.06;5097988;28;20160;-76
2021/10/13 06:12:48;;;;;;;29.20;18.63;;;;;;;-143.90;100.00;58478.06;5072716;28;20413;-84
2021/10/13 06:15:19;;;;;;;32.87;18.17;;;;;;;-143.90;100.00;58478.06;5080023;28;20429;-77
2021/10/13 06:17:51;;;;;;;29.27;17.77;;;;;;;-143.90;100.00;58478.06;5095092;28;20211;-73
2021/10/13 06:20:16;;;;;;;28.60;18.27;;;;;;;-143.90;100.00;58478.06;5089944;28;20501;-79
2021/10/13 06:22:42;;;;;;;28.97;18.90;;;;;;;-143.90;100.00;58478.06;5090024;28;20536;-79
2021/10/13 06:25:08;;;;;;;28.97;19.77;;;;;;;-143.90;100.00;58478.06;5094386;28;20211;-79
2021/10/13 06:27:33;;;;;;;30.73;18.53;;;;;;;-143.90;100.00;58478.06;5097020;28;20163;-77
2021/10/13 06:29:59;;;;;;;31.30;19.27;;;;;;;-143.90;100.00;58478.06;5090394;28;20545;-73
2021/10/13 06:32:25;;;;;;;29.77;19.77;;;;;;;-143.90;100.00;58478.06;5073449;28;20206;-83
2021/10/13 06:34:51;;;;;;;29.40;17.97;;;;;;;-143.90;100.00;58478.06;5096024;28;20947;-78
2021/10/13 06:37:16;;;;;;;25.63;18.17;;;;;;;-143.90;100.00;58478.06;5091515;28;20189;-79
2021/10/13 06:39:42;;;;;;;26.40;17.83;;;;;;;-143.90;100.00;58478.06;5072653;28;20215;-76
2021/10/13 06:42:07;;;;;;;25.70;16.73;;;;;;;-143.90;100.00;58478.06;5094717;28;20230;-76
2021/10/13 06:44:33;;;;;;;24.43;17.47;;;;;;;-143.90;100.00;58478.06;5076211;28;20274;-76
2021/10/13 06:46:58;;;;;;;22.53;14.27;;;;;;;-143.90;100.00;58478.06;5076736;28;20176;-77
2021/10/13 06:49:24;;;;;;;30.20;18.10;;;;;;;-143.90;100.00;58478.06;5094331;28;20156;-81
2021/10/13 06:51:49;;;;;;;27.17;17.20;;;;;;;-143.90;100.00;58478.06;5094052;28;20214;-78
2021/10/13 06:54:15;;;;;;;25.87;18.20;;;;;;;-143.90;100.00;58478.06;5074754;28;20188;-75
2021/10/13 06:56:41;;;;;;;26.90;18.03;;;;;;;-143.90;100.00;58478.06;5078523;28;20347;-82
2021/10/13 06:59:07;;;;;;;29.60;17.97;;;;;;;-143.90;100.00;58478.06;5094281;28;20159;-81
2021/10/13 07:01:33;;;;;;;26.23;17.50;;;;;;;-143.90;100.00;58478.06;5093984;28;20449;-86
2021/10/13 07:03:59;;;;;;;27.63;18.60;;;;;;;-143.90;100.00;58478.06;5095121;28;20719;-80
2021/10/13 07:06:25;;;;;;;25.97;17.00;;;;;;;-143.90;100.00;58478.06;5095087;28;20496;-75
2021/10/13 07:08:51;;;;;;;23.17;14.17;;;;;;;-143.90;100.00;58478.06;5095125;28;20152;-77
2021/10/13 07:11:16;;;;;;;31.50;17.60;;;;;;;-143.90;100.00;58478.06;5093768;28;20514;-73
2021/10/13 07:13:42;;;;;;;23.47;14.50;;;;;;;-143.90;100.00;58478.06;5093156;28;20416;-74
2021/10/13 07:16:07;;;;;;;30.93;16.80;;;;;;;-143.90;100.00;58478.06;5093299;28;20680;-75
2021/10/13 07:18:33;;;;;;;24.70;15.93;;;;;;;-143.90;100.00;58478.06;5093358;28;20160;-78
2021/10/13 07:20:58;;;;;;;26.30;16.93;;;;;;;-143.90;100.00;58478.06;5093297;28;20188;-73
2021/10/13 07:23:24;;;;;;;27.63;17.30;;;;;;;-143.90;100.00;58478.06;5093106;28;20199;-77
2021/10/13 07:25:50;;;;;;;25.43;16.13;;;;;;;-143.90;100.00;58478.06;5092855;28;20167;-75
2021/10/13 07:28:15;;;;;;;20.53;13.53;;;;;;;-143.90;100.00;58478.06;5093020;28;20681;-74
2021/10/13 07:30:41;;;;;;;24.00;16.47;;;;;;;-143.90;100.00;58478.06;5093728;28;20167;-75
2021/10/13 07:33:07;;;;;;;25.97;16.73;;;;;;;-143.90;100.00;58478.06;5092581;28;20232;-75
2021/10/13 07:35:33;;;;;;;21.47;13.03;;;;;;;-143.90;100.00;58478.06;5092109;28;20225;-77
2021/10/13 07:37:59;;;;;;;23.80;14.00;;;;;;;-143.90;100.00;58478.06;5093592;28;20183;-76
2021/10/13 07:40:25;;;;;;;25.03;16.07;;;;;;;-143.90;100.00;58478.06;5074591;28;20947;-74
2021/10/13 07:42:52;;;;;;;24.53;15.80;;;;;;;-143.90;100.00;58478.06;5092977;28;20453;-74
2021/10/13 07:45:18;;;;;;;22.57;15.67;;;;;;;-143.90;100.00;58478.06;5093086;28;20396;-73
2021/10/13 07:47:44;;;;;;;22.90;15.47;;;;;;;-143.90;100.00;58478.06;5092949;28;20475;-72
2021/10/13 07:50:11;;;;;;;25.60;14.63;;;;;;;-143.90;100.00;58478.06;5092292;28;20494;-81
2021/10/13 07:52:36;;;;;;;24.17;16.23;;;;;;;-143.90;100.00;58478.06;5092787;28;20441;-77
2021/10/13 07:55:03;;;;;;;25.17;16.80;;;;;;;-143.90;100.00;58478.06;5091377;28;20590;-74
2021/10/13 07:57:29;;;;;;;23.27;14.57;;;;;;;-143.90;100.00;58478.06;5092331;28;20402;-80
2021/10/13 07:59:54;;;;;;;29.73;21.07;;;;;;;-143.90;100.00;58478.06;5093023;28;20417;-75
2021/10/13 08:02:20;;;;;;;23.90;14.23;;;;;;;-143.90;100.00;58478.06;5092568;28;20595;-74
2021/10/13 08:04:46;;;;;;;28.07;14.93;;;;;;;-143.90;100.00;58478.06;5092151;28;20167;-70
2021/10/13 08:07:11;;;;;;;22.80;14.13;;;;;;;-143.90;100.00;58478.06;5091917;28;20168;-72
2021/10/13 08:09:37;;;;;;;21.50;14.77;;;;;;;-143.90;100.00;58478.06;5092743;28;20815;-73
2021/10/13 08:12:03;;;;;;;29.50;16.00;;;;;;;-143.90;100.00;58478.06;5074261;28;20160;-71
2021/10/13 08:14:28;;;;;;;27.47;10.87;;;;;;;-143.90;100.00;58478.06;5091438;28;20536;-75
2021/10/13 08:16:57;;;;;;;21.07;13.20;;;;;;;-143.90;100.00;58478.06;5093034;28;20245;-75
2021/10/13 08:19:23;;;;;;;27.67;13.87;;;;;;;-143.90;100.00;58478.06;5092478;28;20144;-79
2021/10/13 08:21:48;;;;;;;19.97;14.00;;;;;;;-143.90;100.00;58478.06;5091271;28;20452;-75
2021/10/13 08:24:14;;;;;;;20.60;11.93;;;;;;;-143.90;100.00;58478.06;5091358;28;20410;-77
2021/10/13 08:26:39;;;;;;;19.67;10.23;;;;;;;-143.90;100.00;58478.06;5074769;28;20759;-77
2021/10/13 08:29:05;;;;;;;21.13;12.70;;;;;;;-143.90;100.00;58478.06;5091935;28;20604;-74
2021/10/13 08:31:30;;;;;;;17.80;11.40;;;;;;;-143.90;100.00;58478.06;5092169;28;20160;-84
2021/10/13 08:33:56;;;;;;;26.77;14.20;;;;;;;-143.90;100.00;58478.06;5092504;28;20217;-74
2021/10/13 08:36:21;;;;;;;18.67;8.93;;;;;;;-143.90;100.00;58478.06;5092128;28;20470;-78
2021/10/13 08:38:47;;;;;;;18.80;12.80;;;;;;;-143.90;100.00;58478.06;5091777;28;20337;-77
2021/10/13 08:41:14;;;;;;;17.77;10.43;;;;;;;-143.90;100.00;58478.06;5091442;28;20207;-76
2021/10/13 08:43:43;;;;;;;26.83;14.60;;;;;;;-143.90;100.00;58478.06;5091325;28;20390;-76
2021/10/13 08:46:08;;;;;;;20.50;13.27;;;;;;;-143.90;100.00;58478.06;5092024;28;20386;-75
2021/10/13 08:48:34;;;;;;;21.47;13.33;;;;;;;-143.90;100.00;58478.06;5092104;28;20863;-76
2021/10/13 08:51:00;;;;;;;28.23;13.53;;;;;;;-143.90;100.00;58478.06;5091438;28;20238;-80
2021/10/13 08:53:26;;;;;;;20.43;10.43;;;;;;;-143.90;100.00;58478.06;5091202;28;20160;-81
2021/10/13 08:55:52;;;;;;;17.00;9.10;;;;;;;-143.90;100.00;58478.06;5091849;28;20818;-76
2021/10/13 08:58:20;;;;;;;18.53;10.43;;;;;;;-143.90;100.00;58478.06;5092083;28;20151;-73
2021/10/13 09:00:48;;;;;;;19.70;11.67;;;;;;;-143.90;100.00;58478.06;5092137;28;20524;-80
2021/10/13 09:03:30;;;;;;;21.10;13.37;;;;;;;-143.90;100.00;58478.06;5090756;28;20902;-74
2021/10/13 09:05:58;;;;;;;20.40;10.80;;;;;;;-143.90;100.00;58478.06;5091508;28;20410;-78
2021/10/13 09:08:24;;;;;;;16.90;10.13;;;;;;;-143.90;100.00;58478.06;5091618;28;20410;-71
2021/10/13 09:10:54;;;;;;;22.50;9.80;;;;;;;-143.90;100.00;58478.06;5091861;28;20390;-75
2021/10/13 09:13:20;;;;;;;16.93;8.70;;;;;;;-143.90;100.00;58478.06;5090881;28;20401;-74
2021/10/13 09:15:51;;;;;;;14.00;8.30;;;;;;;-143.90;100.00;58478.06;5091594;28;20494;-75
2021/10/13 09:18:20;;;;;;;26.40;9.27;;;;;;;-143.90;100.00;58478.06;5091201;28;20180;-76
2021/10/13 09:20:48;;;;;;;9.93;5.83;;;;;;;-143.90;100.00;58478.06;5091271;28;20479;-77
2021/10/13 09:23:28;;;;;;;13.47;8.97;;;;;;;-143.90;100.00;58478.06;5090089;28;20911;-73
2021/10/13 09:26:05;;;;;;;15.43;8.20;;;;;;;-143.90;100.00;58478.06;5090846;28;20385;-73
2021/10/13 09:28:31;;;;;;;12.03;7.27;;;;;;;-143.90;100.00;58478.06;5090712;28;20966;-72
2021/10/13 09:31:10;;;;;;;13.20;7.90;;;;;;;-143.90;100.00;58478.06;5090042;28;20501;-75
2021/10/13 09:33:35;;;;;;;20.40;8.80;;;;;;;-143.90;100.00;58478.06;5089913;28;20420;-72
2021/10/13 09:36:01;;;;;;;10.17;6.90;;;;;;;-143.90;100.00;58478.06;5088476;28;20776;-75
2021/10/13 09:38:26;;;;;;;12.10;6.17;;;;;;;-143.90;100.00;58478.06;5089346;28;20233;-73
2021/10/13 09:41:00;;;;;;;11.30;6.67;;;;;;;-143.90;100.00;58478.06;5089114;28;20511;-73
2021/10/13 09:43:29;;;;;;;11.63;6.70;;;;;;;-143.90;100.00;58478.06;5090285;28;20622;-73
2021/10/13 09:46:05;;;;;;;12.30;5.60;;;;;;;-143.90;100.00;58478.06;5089142;28;20447;-72
2021/10/13 09:48:31;;;;;;;10.60;6.77;;;;;;;-143.90;100.00;58478.06;5089532;28;20875;-73
2021/10/13 09:50:57;;;;;;;12.53;7.03;;;;;;;-143.90;100.00;58478.06;5089350;28;20462;-74
2021/10/13 09:53:26;;;;;;;13.40;7.17;;;;;;;-143.90;100.00;58478.06;5090279;28;20204;-73
2021/10/13 09:55:52;;;;;;;8.77;4.70;;;;;;;-143.90;100.00;58478.06;5090162;28;20394;-74
2021/10/13 09:58:34;;;;;;;12.33;6.43;;;;;;;-143.90;100.00;58478.06;5090093;28;20449;-74
2021/10/13 10:01:14;;;;;;;11.03;5.10;;;;;;;-143.90;100.00;58478.06;5069844;28;20165;-76
2021/10/13 10:03:43;;;;;;;12.30;7.17;;;;;;;-143.90;100.00;58478.06;5070138;28;20860;-74
2021/10/13 10:06:10;;;;;;;17.10;7.30;;;;;;;-143.90;100.00;58478.06;5069418;28;20805;-72
2021/10/13 10:08:54;;;;;;;11.40;6.03;;;;;;;-143.90;100.00;58478.06;5089063;28;20463;-71
2021/10/13 10:11:40;;;;;;;14.70;6.90;;;;;;;-143.90;100.00;58478.06;5073510;28;20413;-74
2021/10/13 10:14:37;;;;;;;11.20;6.20;;;;;;;-143.90;100.00;58478.06;5087779;28;20814;-73
2021/10/13 10:17:05;;;;;;;12.10;5.60;;;;;;;-143.90;100.00;58478.06;5089241;28;20405;-73
2021/10/13 10:19:40;;;;;;;11.07;5.60;;;;;;;-143.90;100.00;58478.06;5088798;28;20471;-74
2021/10/13 10:22:12;;;;;;;11.73;5.87;;;;;;;-143.90;100.00;58478.06;5089081;28;20457;-76
2021/10/13 10:24:48;;;;;;;10.97;4.93;;;;;;;-143.90;100.00;58478.06;5087797;28;20453;-74
2021/10/13 10:27:32;;;;;;;20.97;5.67;;;;;;;-143.90;100.00;58478.06;5089022;28;20460;-72
2021/10/13 10:30:10;;;;;;;10.20;4.13;;;;;;;-143.90;100.00;58478.06;5089389;28;20393;-73
2021/10/13 10:32:39;;;;;;;8.40;5.10;;;;;;;-143.90;100.00;58478.06;5088233;28;20449;-73
2021/10/13 10:35:05;;;;;;;7.63;4.40;;;;;;;-143.90;100.00;58478.06;5088955;28;20410;-72
2021/10/13 10:37:41;;;;;;;8.53;4.70;;;;;;;-143.90;100.00;58478.06;5088725;28;20401;-73
2021/10/13 10:40:12;;;;;;;7.97;4.80;;;;;;;-143.90;100.00;58478.06;5088294;28;20207;-72
2021/10/13 10:42:44;;;;;;;8.77;4.90;;;;;;;-143.90;100.00;58478.06;5070259;28;20454;-72
2021/10/13 10:45:14;;;;;;;8.07;4.80;;;;;;;-143.90;100.00;58478.06;5088891;28;20406;-74
2021/10/13 10:48:01;;;;;;;11.20;5.13;;;;;;;-143.90;100.00;58478.06;5090408;28;20735;-73
2021/10/13 10:50:34;;;;;;;8.57;4.67;;;;;;;-143.90;100.00;58478.06;5089931;28;20443;-77
2021/10/13 10:53:06;;;;;;;8.43;4.10;;;;;;;-143.90;100.00;58478.06;5089600;28;20421;-71
2021/10/13 10:55:36;;;;;;;8.00;4.90;;;;;;;-143.90;100.00;58478.06;5090338;28;20447;-75
2021/10/13 10:58:41;;;;;;;9.87;5.17;;;;;;;-143.90;100.00;58478.06;5090321;28;20390;-78
2021/10/13 11:01:15;;;;;;;8.17;4.47;;;;;;;-143.90;100.00;58478.06;5086353;28;20473;-74